Time;durP1;ratioP1;P1;durP2;ratioP2;P2;SDS_P1;SDS_P2;PMS_P1;PMS_P2;Temp;Humidity;BMP_temperature;BMP_pressure;BME280_temperature;BME280_humidity;BME280_pressure;Samples;Min_cycle;Max_cycle;Signal;HPM_P1;HPM_P2
2023/07/27 00:02:11;;;;;;;6.85;4.15;;;14.10;85.70;;;;;;5076166;28;20507;-45
2023/07/27 00:04:38;;;;;;;6.85;4.80;;;14.10;85.90;;;;;;5101876;28;20030;-44
2023/07/27 00:07:05;;;;;;;5.13;3.80;;;14.00;86.10;;;;;;5113519;28;20038;-44
2023/07/27 00:09:32;;;;;;;5.40;3.83;;;14.00;86.00;;;;;;5099446;28;20032;-46
2023/07/27 00:12:03;;;;;;;7.45;4.53;;;14.00;86.10;;;;;;5093105;28;20063;-45
2023/07/27 00:14:30;;;;;;;7.25;4.78;;;13.90;86.20;;;;;;5102358;28;20467;-45
2023/07/27 00:16:57;;;;;;;9.60;5.20;;;13.90;86.20;;;;;;5109511;28;20028;-45
2023/07/27 00:19:23;;;;;;;8.00;4.45;;;13.90;86.10;;;;;;5075075;28;20028;-45
2023/07/27 00:21:50;;;;;;;7.93;4.53;;;13.90;86.00;;;;;;5092951;28;20100;-47
2023/07/27 00:24:17;;;;;;;8.00;5.25;;;13.90;86.20;;;;;;5097619;28;20047;-44
2023/07/27 00:26:45;;;;;;;8.30;4.50;;;13.90;86.00;;;;;;5113379;28;20020;-45
2023/07/27 00:29:12;;;;;;;8.52;4.72;;;13.90;86.00;;;;;;5092286;28;20028;-44
2023/07/27 00:31:38;;;;;;;6.93;4.53;;;13.80;86.00;;;;;;5092449;28;20507;-45
2023/07/27 00:34:05;;;;;;;6.88;4.35;;;13.70;85.90;;;;;;5112895;28;20023;-44
2023/07/27 00:36:32;;;;;;;6.85;4.93;;;13.80;86.00;;;;;;5090935;28;20119;-43
2023/07/27 00:38:59;;;;;;;7.07;4.85;;;13.70;86.00;;;;;;5093876;28;20059;-46
2023/07/27 00:41:26;;;;;;;8.35;4.13;;;13.70;85.90;;;;;;5096684;28;20035;-44
2023/07/27 00:43:53;;;;;;;9.95;5.00;;;13.70;85.90;;;;;;5080494;28;20039;-44
2023/07/27 00:46:20;;;;;;;7.22;4.70;;;13.60;86.00;;;;;;5115236;28;20036;-44
2023/07/27 00:48:47;;;;;;;8.07;4.30;;;13.60;86.00;;;;;;5098042;28;20109;-43
2023/07/27 00:51:14;;;;;;;6.60;4.40;;;13.50;86.30;;;;;;5110625;28;20793;-44
2023/07/27 00:53:41;;;;;;;6.63;4.18;;;13.50;86.50;;;;;;5096723;28;20024;-44
2023/07/27 00:56:08;;;;;;;11.57;3.90;;;13.50;86.60;;;;;;5097346;28;20028;-43
2023/07/27 00:58:36;;;;;;;7.55;5.35;;;13.50;86.60;;;;;;5072972;28;20027;-45
2023/07/27 01:01:07;;;;;;;9.98;5.00;;;13.40;86.80;;;;;;5096138;28;20028;-44
2023/07/27 01:03:34;;;;;;;8.82;5.03;;;13.40;86.60;;;;;;5116647;28;20332;-43
2023/07/27 01:06:01;;;;;;;9.27;4.88;;;13.40;86.80;;;;;;5109223;28;20341;-42
2023/07/27 01:08:30;;;;;;;12.07;5.70;;;13.40;86.90;;;;;;5096275;28;20024;-45
2023/07/27 01:11:37;;;;;;;9.30;5.32;;;13.40;86.80;;;;;;5096135;28;20026;-44
2023/07/27 01:14:33;;;;;;;8.20;4.70;;;13.40;87.00;;;;;;5097852;28;20074;-43
2023/07/27 01:17:38;;;;;;;7.32;4.95;;;13.30;87.00;;;;;;5083424;28;20341;-44
2023/07/27 01:20:19;;;;;;;8.38;4.63;;;13.20;87.20;;;;;;5047131;28;20455;-43
2023/07/27 01:23:10;;;;;;;8.77;4.70;;;13.20;87.30;;;;;;5108416;28;20027;-44
2023/07/27 01:26:18;;;;;;;10.65;5.70;;;13.20;87.20;;;;;;5115429;28;20027;-45
2023/07/27 01:29:22;;;;;;;11.75;6.10;;;13.10;87.40;;;;;;5095664;28;20463;-45
2023/07/27 01:31:51;;;;;;;7.60;5.43;;;13.10;87.50;;;;;;5108846;28;20071;-43
2023/07/27 01:34:26;;;;;;;;;;;13.10;87.80;;;;;;5107383;28;20392;-45
2023/07/27 01:36:58;;;;;;;10.35;5.68;;;13.00;87.80;;;;;;5077964;28;20006;-43
2023/07/27 01:39:26;;;;;;;8.98;5.18;;;13.00;87.80;;;;;;5095163;28;20120;-43
2023/07/27 01:41:54;;;;;;;7.93;5.28;;;13.00;87.90;;;;;;5094960;28;20039;-42
2023/07/27 01:44:23;;;;;;;7.30;5.70;;;13.00;87.90;;;;;;5097065;28;20055;-43
2023/07/27 01:46:52;;;;;;;7.65;6.05;;;13.00;88.00;;;;;;5090321;28;20036;-43
2023/07/27 01:49:20;;;;;;;9.40;5.70;;;13.00;88.00;;;;;;5115473;28;20045;-43
2023/07/27 01:51:49;;;;;;;8.25;5.78;;;13.00;87.90;;;;;;5100507;28;20440;-43
2023/07/27 01:54:16;;;;;;;10.57;5.82;;;13.00;88.00;;;;;;5077866;28;20028;-43
2023/07/27 01:56:44;;;;;;;7.90;5.88;;;13.00;88.00;;;;;;5096023;28;20028;-44
2023/07/27 01:59:15;;;;;;;8.13;5.13;;;13.00;88.10;;;;;;5095314;28;20017;-43
2023/07/27 02:01:42;;;;;;;8.02;5.53;;;13.00;88.30;;;;;;5086065;28;20823;-43
2023/07/27 02:04:10;;;;;;;8.50;5.30;;;13.00;88.20;;;;;;5095000;28;20036;-43
2023/07/27 02:06:37;;;;;;;8.82;5.88;;;13.00;88.20;;;;;;5096055;28;20103;-43
2023/07/27 02:09:05;;;;;;;9.95;6.32;;;13.10;88.10;;;;;;5094733;28;20024;-44
2023/07/27 02:11:31;;;;;;;8.27;5.50;;;13.00;88.20;;;;;;5094600;28;20036;-43
2023/07/27 02:14:22;;;;;;;10.02;5.55;;;13.00;88.20;;;;;;5095996;28;20035;-43
2023/07/27 02:17:19;;;;;;;11.38;6.50;;;13.10;88.10;;;;;;5091909;28;20153;-44
2023/07/27 02:19:55;;;;;;;10.25;5.82;;;13.10;88.10;;;;;;5076802;28;20046;-43
2023/07/27 02:22:23;;;;;;;10.57;6.22;;;13.00;88.10;;;;;;5094676;28;20111;-44
2023/07/27 02:24:49;;;;;;;9.18;6.20;;;13.00;88.10;;;;;;5094242;28;20429;-43
2023/07/27 02:27:14;;;;;;;7.75;5.93;;;13.00;88.20;;;;;;5097304;28;20023;-42
2023/07/27 02:29:40;;;;;;;8.73;6.93;;;13.00;88.10;;;;;;5112744;28;20141;-44
2023/07/27 02:32:06;;;;;;;8.88;5.65;;;13.00;88.10;;;;;;5112449;28;20403;-44
2023/07/27 02:34:33;;;;;;;8.13;6.57;;;13.00;88.00;;;;;;5096502;28;20023;-44
2023/07/27 02:36:59;;;;;;;9.57;6.78;;;12.90;88.00;;;;;;5093910;28;20020;-42
2023/07/27 02:39:28;;;;;;;9.30;7.05;;;12.90;88.00;;;;;;5093576;28;20348;-42
2023/07/27 02:41:58;;;;;;;9.93;6.97;;;12.90;88.00;;;;;;5095491;28;20032;-43
2023/07/27 02:44:25;;;;;;;;;;;12.90;88.10;;;;;;5101237;28;20474;-43
2023/07/27 02:46:51;;;;;;;8.77;6.15;;;12.90;87.90;;;;;;5098925;28;19919;-42
2023/07/27 02:49:18;;;;;;;11.90;7.68;;;12.90;88.10;;;;;;5093390;28;20109;-43
2023/07/27 02:51:45;;;;;;;10.60;7.47;;;12.90;88.10;;;;;;5094896;28;20040;-42
2023/07/27 02:54:12;;;;;;;11.50;6.38;;;12.90;88.10;;;;;;5113983;28;20023;-43
2023/07/27 02:56:38;;;;;;;9.00;6.93;;;12.90;88.00;;;;;;5103574;28;20048;-44
2023/07/27 02:59:05;;;;;;;12.90;7.00;;;12.90;87.90;;;;;;5094326;28;20028;-43
2023/07/27 03:01:32;;;;;;;10.73;7.43;;;12.90;88.00;;;;;;5077678;28;20062;-43
2023/07/27 03:03:57;;;;;;;9.18;7.25;;;12.90;88.00;;;;;;5095688;28;20050;-44
2023/07/27 03:06:24;;;;;;;10.25;7.03;;;12.90;88.10;;;;;;5101121;28;20487;-42
2023/07/27 03:08:50;;;;;;;10.30;7.28;;;12.90;88.10;;;;;;5096238;28;20077;-43
2023/07/27 03:11:16;;;;;;;11.73;8.43;;;12.90;88.10;;;;;;5100598;28;20048;-43
2023/07/27 03:13:46;;;;;;;9.55;7.07;;;12.90;88.00;;;;;;5093780;28;20028;-43
2023/07/27 03:16:13;;;;;;;11.68;7.40;;;12.90;88.10;;;;;;5101888;28;20040;-43
2023/07/27 03:18:41;;;;;;;11.40;7.50;;;12.90;88.20;;;;;;5113440;28;20364;-46
2023/07/27 03:21:08;;;;;;;10.63;7.60;;;12.90;88.10;;;;;;5102262;28;20043;-43
2023/07/27 03:23:36;;;;;;;13.93;7.88;;;12.90;88.20;;;;;;5114130;28;20424;-42
2023/07/27 03:26:12;;;;;;;11.43;7.35;;;12.90;88.10;;;;;;5103320;28;20028;-44
2023/07/27 03:28:42;;;;;;;12.10;7.40;;;12.90;88.20;;;;;;5093380;28;20036;-44
2023/07/27 03:31:17;;;;;;;;;;;13.00;88.30;;;;;;5077421;28;20700;-43
2023/07/27 03:33:44;;;;;;;12.77;8.57;;;13.00;88.20;;;;;;5077077;28;19997;-43
2023/07/27 03:36:12;;;;;;;10.15;8.05;;;13.00;88.30;;;;;;5075492;28;20032;-42
2023/07/27 03:38:39;;;;;;;9.80;7.63;;;13.00;88.30;;;;;;5073132;28;20041;-43
2023/07/27 03:41:06;;;;;;;9.10;6.85;;;13.00;88.30;;;;;;5075099;28;20032;-43
2023/07/27 03:43:32;;;;;;;11.57;7.60;;;13.00;88.30;;;;;;5074794;28;20032;-42
2023/07/27 03:46:01;;;;;;;12.73;8.57;;;13.00;88.30;;;;;;5085782;28;20102;-42
2023/07/27 03:48:30;;;;;;;9.82;7.65;;;13.00;88.40;;;;;;5072967;28;20036;-44
2023/07/27 03:51:01;;;;;;;;;;;13.00;88.40;;;;;;5073242;28;20036;-42
2023/07/27 03:53:28;;;;;;;;;;;13.00;88.40;;;;;;5073127;28;19927;-42
2023/07/27 03:55:57;;;;;;;11.43;8.25;;;13.10;88.40;;;;;;5074726;28;19999;-42
2023/07/27 03:58:24;;;;;;;14.02;8.25;;;13.10;88.40;;;;;;5073254;28;20059;-43
2023/07/27 04:00:51;;;;;;;9.63;7.28;;;13.20;88.40;;;;;;5073935;28;20036;-44
2023/07/27 04:03:17;;;;;;;12.77;6.90;;;13.20;88.40;;;;;;5063629;28;20426;-43
2023/07/27 04:05:44;;;;;;;13.65;8.48;;;13.30;88.30;;;;;;5054368;28;20040;-44
2023/07/27 04:08:10;;;;;;;12.27;7.50;;;13.20;88.20;;;;;;5091094;28;20028;-43
2023/07/27 04:10:37;;;;;;;14.88;9.95;;;13.30;88.50;;;;;;5089408;28;20111;-43
2023/07/27 04:13:05;;;;;;;11.43;7.70;;;13.30;88.30;;;;;;5057239;28;20031;-44
2023/07/27 04:15:33;;;;;;;8.90;7.43;;;13.40;88.20;;;;;;5062900;28;20444;-44
2023/07/27 04:18:00;;;;;;;15.30;8.00;;;13.40;88.30;;;;;;5067677;28;20433;-42
2023/07/27 04:20:27;;;;;;;11.70;8.35;;;13.40;88.30;;;;;;5085756;28;20040;-43
2023/07/27 04:22:54;;;;;;;13.45;8.32;;;13.40;88.20;;;;;;5087332;28;20095;-43
2023/07/27 04:25:27;;;;;;;14.38;8.18;;;13.50;88.30;;;;;;5085034;28;20436;-43
2023/07/27 04:27:52;;;;;;;10.95;7.13;;;13.50;88.20;;;;;;5082869;28;20040;-43
2023/07/27 04:30:19;;;;;;;12.32;9.32;;;13.50;88.20;;;;;;5082001;28;20037;-44
2023/07/27 04:32:46;;;;;;;9.27;7.03;;;13.50;87.90;;;;;;5099043;28;20040;-44
2023/07/27 04:35:11;;;;;;;8.27;6.30;;;13.50;87.60;;;;;;5104396;28;20371;-43
2023/07/27 04:37:37;;;;;;;10.13;7.45;;;13.50;87.60;;;;;;5107625;28;20020;-43
2023/07/27 04:40:05;;;;;;;11.15;7.47;;;13.50;87.40;;;;;;5104580;28;20046;-43
2023/07/27 04:42:32;;;;;;;8.73;7.10;;;13.60;87.30;;;;;;5103056;28;20055;-44
2023/07/27 04:44:59;;;;;;;10.20;6.35;;;13.60;87.30;;;;;;5106904;28;20028;-43
2023/07/27 04:47:26;;;;;;;9.40;6.88;;;13.70;87.40;;;;;;5104445;28;20042;-43
2023/07/27 04:49:51;;;;;;;14.40;7.07;;;13.70;87.40;;;;;;5102952;28;20080;-45
2023/07/27 04:52:18;;;;;;;12.25;8.05;;;13.80;87.10;;;;;;5104952;28;20040;-43
2023/07/27 04:54:45;;;;;;;9.25;6.40;;;13.80;87.00;;;;;;5109957;28;20051;-44
2023/07/27 04:57:12;;;;;;;11.00;7.50;;;13.80;87.00;;;;;;5108428;28;20020;-45
2023/07/27 04:59:38;;;;;;;10.02;7.45;;;13.90;86.80;;;;;;5111253;28;20160;-43
2023/07/27 05:02:07;;;;;;;9.57;6.60;;;13.90;86.80;;;;;;5101024;28;20119;-43
2023/07/27 05:04:34;;;;;;;11.00;7.45;;;13.90;86.90;;;;;;5104694;28;20035;-43
2023/07/27 05:07:00;;;;;;;9.52;6.95;;;13.90;86.90;;;;;;5104807;28;20028;-44
2023/07/27 05:09:26;;;;;;;7.97;6.00;;;13.90;86.90;;;;;;5104230;28;20076;-45
2023/07/27 05:11:59;;;;;;;12.10;7.00;;;13.90;87.10;;;;;;5085037;28;20448;-47
2023/07/27 05:14:26;;;;;;;9.73;7.15;;;14.00;87.10;;;;;;5105214;28;20028;-45
2023/07/27 05:16:53;;;;;;;9.70;8.07;;;14.00;87.20;;;;;;5086128;28;20561;-44
2023/07/27 05:19:19;;;;;;;8.63;6.07;;;14.10;86.90;;;;;;5103956;28;20027;-44
2023/07/27 05:21:46;;;;;;;8.82;6.47;;;14.10;87.10;;;;;;5086730;28;20046;-45
2023/07/27 05:24:13;;;;;;;8.43;6.70;;;14.20;87.10;;;;;;5103652;28;20078;-47
2023/07/27 05:26:40;;;;;;;10.05;7.55;;;14.20;87.10;;;;;;5104087;28;20108;-44
2023/07/27 05:29:08;;;;;;;12.02;7.80;;;14.20;87.20;;;;;;5104105;28;20019;-45
2023/07/27 05:31:37;;;;;;;15.20;8.18;;;14.20;87.20;;;;;;5098887;28;20036;-45
2023/07/27 05:34:07;;;;;;;10.43;6.70;;;14.20;87.30;;;;;;5098089;28;20043;-47
2023/07/27 05:36:33;;;;;;;10.15;6.55;;;14.30;87.30;;;;;;5095429;28;20020;-44
2023/07/27 05:38:59;;;;;;;9.02;6.38;;;14.30;87.40;;;;;;5097464;28;20047;-45
2023/07/27 05:41:26;;;;;;;10.73;7.60;;;14.40;87.50;;;;;;5097703;28;20021;-45
2023/07/27 05:43:58;;;;;;;9.18;7.22;;;14.40;87.40;;;;;;5121574;27;20027;-44
2023/07/27 05:46:25;;;;;;;10.73;8.30;;;14.40;87.30;;;;;;5102883;27;20077;-44
2023/07/27 05:48:52;;;;;;;12.90;8.30;;;14.40;87.00;;;;;;5117722;27;20011;-45
2023/07/27 05:51:22;;;;;;;10.82;7.88;;;14.40;86.70;;;;;;5120714;27;20027;-44
2023/07/27 05:53:51;;;;;;;10.32;7.60;;;14.40;86.60;;;;;;5122328;27;20027;-45
2023/07/27 05:56:18;;;;;;;10.45;7.43;;;14.50;86.70;;;;;;5094499;28;20028;-44
2023/07/27 05:58:45;;;;;;;10.25;8.23;;;14.60;86.70;;;;;;5120060;27;20056;-46
2023/07/27 06:01:12;;;;;;;11.20;8.63;;;14.70;86.60;;;;;;5120504;27;20023;-46
2023/07/27 06:03:37;;;;;;;10.38;7.70;;;14.80;86.50;;;;;;5120665;27;20236;-45
2023/07/27 06:06:06;;;;;;;10.65;8.07;;;14.90;85.80;;;;;;5127836;27;20447;-47
2023/07/27 06:08:33;;;;;;;9.43;7.18;;;14.90;85.30;;;;;;5131134;27;20027;-46
2023/07/27 06:11:01;;;;;;;12.00;8.20;;;14.90;85.20;;;;;;5125897;27;20065;-47
2023/07/27 06:13:29;;;;;;;10.45;8.02;;;14.90;84.80;;;;;;5131476;27;20416;-46
2023/07/27 06:15:58;;;;;;;11.32;7.93;;;15.00;85.00;;;;;;5115993;27;20455;-46
2023/07/27 06:18:25;;;;;;;12.15;8.23;;;15.00;84.60;;;;;;5125362;27;20042;-49
2023/07/27 06:20:52;;;;;;;11.68;8.18;;;15.00;84.60;;;;;;5122930;27;20427;-47
2023/07/27 06:23:20;;;;;;;11.57;8.20;;;15.10;84.60;;;;;;5118728;27;20035;-47
2023/07/27 06:25:49;;;;;;;10.57;8.15;;;15.00;84.70;;;;;;5105183;28;20066;-47
2023/07/27 06:28:16;;;;;;;11.55;8.50;;;15.00;85.00;;;;;;5118824;27;20027;-46
2023/07/27 06:30:45;;;;;;;11.55;7.88;;;15.00;85.00;;;;;;5114608;27;20027;-47
2023/07/27 06:33:15;;;;;;;9.88;7.45;;;15.00;85.20;;;;;;5118797;27;20415;-45
2023/07/27 06:35:41;;;;;;;10.50;8.00;;;15.00;85.40;;;;;;5118688;27;20094;-46
2023/07/27 06:38:08;;;;;;;10.55;7.75;;;15.10;85.50;;;;;;5123369;27;20135;-46
2023/07/27 06:40:35;;;;;;;10.80;7.65;;;15.10;85.60;;;;;;5119589;27;20034;-46
2023/07/27 06:43:02;;;;;;;10.80;8.68;;;15.20;85.60;;;;;;5128329;27;20038;-49
2023/07/27 06:45:29;;;;;;;12.73;8.55;;;15.20;85.50;;;;;;5100094;27;20027;-47
2023/07/27 06:47:55;;;;;;;11.52;8.05;;;15.20;85.50;;;;;;5102747;27;20110;-46
2023/07/27 06:50:23;;;;;;;10.00;7.97;;;15.20;85.30;;;;;;5123675;27;20368;-47
2023/07/27 06:52:50;;;;;;;14.13;8.50;;;15.20;85.70;;;;;;5116558;27;20031;-46
2023/07/27 06:55:17;;;;;;;10.70;8.20;;;15.20;85.60;;;;;;5114969;27;20024;-46
2023/07/27 06:57:47;;;;;;;11.95;7.95;;;15.20;85.60;;;;;;5097308;27;20080;-45
2023/07/27 07:00:13;;;;;;;11.63;8.32;;;15.30;85.90;;;;;;5099104;27;20038;-44
2023/07/27 07:02:41;;;;;;;22.30;9.20;;;15.30;86.30;;;;;;5122328;27;20027;-44
2023/07/27 07:05:18;;;;;;;10.00;9.00;;;15.30;86.30;;;;;;5121404;27;20027;-43
2023/07/27 07:07:45;;;;;;;10.23;8.75;;;15.30;86.60;;;;;;5123990;27;20512;-42
2023/07/27 07:10:13;;;;;;;10.55;9.05;;;15.20;86.50;;;;;;5121567;27;20043;-42
2023/07/27 07:12:41;;;;;;;11.65;8.18;;;15.20;86.70;;;;;;5129892;27;20061;-43
2023/07/27 07:15:08;;;;;;;9.30;7.82;;;15.20;87.00;;;;;;5116196;27;20084;-42
2023/07/27 07:17:35;;;;;;;10.43;7.45;;;15.20;87.30;;;;;;5121902;27;20035;-43
2023/07/27 07:20:09;;;;;;;10.88;7.78;;;15.30;87.90;;;;;;5096175;28;20044;-43
2023/07/27 07:22:44;;;;;;;10.73;8.95;;;15.30;88.00;;;;;;5116689;27;20039;-44
2023/07/27 07:25:15;;;;;;;10.50;8.30;;;15.30;87.90;;;;;;5100738;28;20106;-45
2023/07/27 07:27:45;;;;;;;8.93;7.72;;;15.30;88.30;;;;;;5096268;28;20060;-45
2023/07/27 07:30:13;;;;;;;10.18;7.13;;;15.40;88.60;;;;;;5115250;27;20050;-45
2023/07/27 07:32:41;;;;;;;9.63;8.40;;;15.40;88.90;;;;;;5118660;28;20526;-45
2023/07/27 07:35:08;;;;;;;8.90;7.03;;;15.40;88.70;;;;;;5106159;28;20027;-46
2023/07/27 07:37:34;;;;;;;9.20;7.38;;;15.30;88.40;;;;;;5120454;28;20031;-45
2023/07/27 07:40:02;;;;;;;8.68;6.88;;;15.20;88.80;;;;;;5102419;28;20065;-47
2023/07/27 07:42:28;;;;;;;8.18;7.28;;;15.10;89.10;;;;;;5120977;28;20467;-49
2023/07/27 07:44:53;;;;;;;9.10;7.60;;;15.00;89.60;;;;;;5119072;28;20054;-47
2023/07/27 07:47:20;;;;;;;8.25;6.82;;;15.00;90.10;;;;;;5122100;28;20027;-46
2023/07/27 07:49:49;;;;;;;9.13;7.13;;;15.00;90.30;;;;;;5127369;27;20092;-45
2023/07/27 07:52:17;;;;;;;8.82;6.65;;;15.00;90.50;;;;;;5125629;27;20158;-45
2023/07/27 07:54:45;;;;;;;9.30;7.35;;;15.00;90.70;;;;;;5117519;27;20039;-45
2023/07/27 07:57:11;;;;;;;9.10;7.07;;;15.10;90.70;;;;;;5131655;27;20074;-45
2023/07/27 07:59:38;;;;;;;10.27;8.32;;;15.10;90.90;;;;;;5128620;27;20561;-46
2023/07/27 08:02:03;;;;;;;9.55;6.90;;;15.20;91.10;;;;;;5125925;27;20031;-46
2023/07/27 08:04:30;;;;;;;9.02;6.72;;;15.30;91.20;;;;;;5107821;27;20036;-47
2023/07/27 08:06:57;;;;;;;10.43;7.32;;;15.40;91.30;;;;;;5132702;27;20031;-49
2023/07/27 08:09:27;;;;;;;9.68;7.50;;;15.60;91.40;;;;;;5119413;27;20052;-47
2023/07/27 08:11:54;;;;;;;10.60;8.10;;;15.70;91.00;;;;;;5128051;27;20042;-46
2023/07/27 08:14:23;;;;;;;9.60;7.03;;;15.80;90.80;;;;;;5118165;27;20023;-46
2023/07/27 08:16:51;;;;;;;11.00;7.70;;;15.90;90.80;;;;;;5130695;27;20028;-46
2023/07/27 08:19:18;;;;;;;9.05;7.35;;;15.90;90.50;;;;;;5108305;27;20035;-46
2023/07/27 08:21:46;;;;;;;9.80;7.20;;;15.90;90.20;;;;;;5131261;27;20032;-46
2023/07/27 08:24:11;;;;;;;10.48;7.53;;;16.00;90.30;;;;;;5129694;27;20030;-47
2023/07/27 08:26:39;;;;;;;11.05;7.22;;;15.90;89.80;;;;;;5108208;27;20118;-46
2023/07/27 08:29:06;;;;;;;9.57;7.03;;;15.90;89.50;;;;;;5131438;27;20096;-46
2023/07/27 08:31:33;;;;;;;9.48;7.75;;;15.90;89.70;;;;;;5123697;27;20352;-45
2023/07/27 08:34:00;;;;;;;10.43;7.32;;;15.90;89.60;;;;;;5119485;27;20027;-46
2023/07/27 08:36:26;;;;;;;9.82;6.50;;;15.90;89.70;;;;;;5128412;27;20094;-45
2023/07/27 08:38:58;;;;;;;10.27;7.53;;;15.90;89.50;;;;;;5133851;27;20037;-46
2023/07/27 08:41:27;;;;;;;8.25;6.40;;;15.90;89.80;;;;;;5124293;27;20085;-45
2023/07/27 08:43:53;;;;;;;8.47;6.23;;;15.90;89.90;;;;;;5095522;28;20067;-46
2023/07/27 08:46:22;;;;;;;10.43;7.22;;;15.90;90.00;;;;;;5114735;27;20077;-46
2023/07/27 08:48:49;;;;;;;9.32;7.40;;;15.90;89.80;;;;;;5135238;27;20019;-45
2023/07/27 08:51:17;;;;;;;10.23;7.97;;;15.90;90.00;;;;;;5123686;27;20027;-46
2023/07/27 08:53:46;;;;;;;7.97;7.15;;;15.80;90.10;;;;;;5104111;28;20032;-46
2023/07/27 08:56:11;;;;;;;9.93;7.28;;;15.80;90.10;;;;;;5120550;27;20034;-48
2023/07/27 08:58:39;;;;;;;9.13;7.18;;;15.60;90.10;;;;;;5122422;27;20012;-47
2023/07/27 09:01:07;;;;;;;8.85;7.00;;;15.60;90.50;;;;;;5128395;27;20034;-47
2023/07/27 09:03:35;;;;;;;10.13;8.60;;;15.50;90.70;;;;;;5135712;27;20062;-46
2023/07/27 09:06:03;;;;;;;9.50;7.80;;;15.50;91.00;;;;;;5131799;27;20056;-46
2023/07/27 09:08:32;;;;;;;10.57;8.98;;;15.50;91.10;;;;;;5115339;27;20102;-48
2023/07/27 09:11:21;;;;;;;9.00;6.82;;;15.50;91.30;;;;;;5123663;27;20046;-47
2023/07/27 09:13:48;;;;;;;10.43;8.75;;;15.60;91.40;;;;;;5120131;27;20348;-46
2023/07/27 09:16:20;;;;;;;10.63;8.55;;;15.60;91.40;;;;;;5125173;27;20037;-46
2023/07/27 09:18:47;;;;;;;11.00;8.48;;;15.50;91.20;;;;;;5102064;27;20347;-45
2023/07/27 09:21:15;;;;;;;8.77;7.43;;;15.50;91.50;;;;;;5108242;27;20027;-46
2023/07/27 09:23:46;;;;;;;10.38;7.97;;;15.50;91.70;;;;;;5087908;27;20027;-46
2023/07/27 09:26:25;;;;;;;10.93;8.80;;;15.60;91.90;;;;;;5128555;27;20031;-46
2023/07/27 09:28:56;;;;;;;9.70;8.05;;;15.70;91.90;;;;;;5132493;27;20049;-47
2023/07/27 09:31:24;;;;;;;11.65;8.70;;;15.80;92.00;;;;;;5094501;28;20075;-47
2023/07/27 09:33:50;;;;;;;10.85;9.13;;;15.90;91.90;;;;;;5109645;27;20032;-47
2023/07/27 09:36:19;;;;;;;10.68;8.13;;;15.90;91.80;;;;;;5097599;28;20023;-47
2023/07/27 09:38:47;;;;;;;11.20;8.63;;;16.00;91.80;;;;;;5129434;27;20011;-47
2023/07/27 09:41:15;;;;;;;11.93;8.40;;;16.00;91.60;;;;;;5121976;27;20343;-47
2023/07/27 09:43:43;;;;;;;9.18;7.80;;;16.10;91.70;;;;;;5129599;27;20034;-47
2023/07/27 09:46:10;;;;;;;10.38;8.52;;;16.10;91.80;;;;;;5129455;27;20393;-48
2023/07/27 09:48:37;;;;;;;9.30;8.18;;;16.10;91.70;;;;;;5130438;27;20023;-47
2023/07/27 09:51:07;;;;;;;9.27;8.25;;;16.10;91.40;;;;;;5116307;27;20471;-48
2023/07/27 09:53:37;;;;;;;9.32;8.32;;;16.20;91.70;;;;;;5126727;27;20024;-46
2023/07/27 09:56:05;;;;;;;11.63;8.70;;;16.20;91.70;;;;;;5135571;27;20080;-46
2023/07/27 09:58:33;;;;;;;10.20;8.15;;;16.30;91.70;;;;;;5100287;27;20027;-48
2023/07/27 10:00:59;;;;;;;9.43;7.70;;;16.30;91.70;;;;;;5123950;27;20033;-47
2023/07/27 10:03:29;;;;;;;9.82;8.13;;;16.30;91.70;;;;;;5107747;27;20027;-46
2023/07/27 10:05:54;;;;;;;;;;;16.30;91.60;;;;;;5116813;27;20032;-46
2023/07/27 10:08:20;;;;;;;10.75;8.57;;;16.30;91.20;;;;;;5117136;27;19919;-46
2023/07/27 10:10:54;;;;;;;9.20;8.30;;;16.30;91.30;;;;;;5107916;27;20038;-46
2023/07/27 10:13:26;;;;;;;25.30;9.95;;;16.20;91.30;;;;;;5125287;27;20034;-46
2023/07/27 10:15:55;;;;;;;12.02;8.35;;;16.20;91.40;;;;;;5127993;27;20459;-46
2023/07/27 10:18:27;;;;;;;12.20;8.65;;;16.20;91.50;;;;;;5112558;27;20031;-47
2023/07/27 10:21:26;;;;;;;13.18;8.55;;;16.10;91.60;;;;;;5099739;28;20062;-47
2023/07/27 10:24:02;;;;;;;11.27;8.52;;;16.10;91.70;;;;;;5115286;27;20032;-46
2023/07/27 10:26:51;;;;;;;11.70;10.50;;;16.10;91.80;;;;;;5129990;27;20035;-46
2023/07/27 10:29:23;;;;;;;15.40;11.98;;;16.10;91.80;;;;;;5119996;27;20037;-47
2023/07/27 10:32:07;;;;;;;12.10;10.90;;;16.20;92.00;;;;;;5127328;27;20039;-47
2023/07/27 10:34:38;;;;;;;13.82;12.52;;;16.30;92.00;;;;;;5102535;28;20024;-46
2023/07/27 10:37:06;;;;;;;13.63;12.23;;;16.40;92.10;;;;;;5097997;28;20032;-46
2023/07/27 10:39:48;;;;;;;17.00;11.88;;;16.40;92.00;;;;;;5106408;28;20024;-46
2023/07/27 10:42:34;;;;;;;14.95;13.57;;;16.50;91.90;;;;;;5102449;28;20038;-47
2023/07/27 10:45:05;;;;;;;13.68;12.48;;;16.60;91.80;;;;;;5117161;27;20023;-48
2023/07/27 10:47:37;;;;;;;15.48;13.88;;;16.60;91.40;;;;;;5109860;28;20023;-48
2023/07/27 10:50:04;;;;;;;13.25;12.05;;;16.50;90.90;;;;;;5097279;28;20020;-46
2023/07/27 10:52:36;;;;;;;12.20;11.07;;;16.40;90.90;;;;;;5098325;28;20032;-46
2023/07/27 10:55:07;;;;;;;13.73;12.30;;;16.40;90.90;;;;;;5101479;28;20019;-46
2023/07/27 10:57:34;;;;;;;11.73;10.63;;;16.40;90.90;;;;;;5114429;28;20340;-44
2023/07/27 11:00:09;;;;;;;11.80;10.43;;;16.40;91.10;;;;;;5109885;28;20012;-45
2023/07/27 11:02:42;;;;;;;13.27;11.95;;;16.60;90.90;;;;;;5109406;28;20040;-45
2023/07/27 11:05:09;;;;;;;12.23;10.02;;;16.60;90.80;;;;;;5106544;28;20119;-45
2023/07/27 11:07:44;;;;;;;11.10;10.00;;;16.70;90.90;;;;;;5094047;28;20404;-45
2023/07/27 11:10:14;;;;;;;13.32;11.32;;;16.80;90.80;;;;;;5077827;28;20032;-46
2023/07/27 11:12:58;;;;;;;18.70;11.10;;;16.90;90.70;;;;;;5080818;28;20020;-45
2023/07/27 11:15:29;;;;;;;9.90;8.95;;;16.80;90.30;;;;;;5085125;28;20032;-45
2023/07/27 11:17:57;;;;;;;9.30;8.40;;;16.90;90.50;;;;;;5086290;28;20028;-44
2023/07/27 11:20:30;;;;;;;9.85;8.70;;;16.90;90.50;;;;;;5091260;28;20028;-45
2023/07/27 11:22:58;;;;;;;10.82;9.73;;;17.00;90.50;;;;;;5070155;28;20059;-45
2023/07/27 11:25:32;;;;;;;10.35;9.35;;;17.00;90.20;;;;;;5087391;28;20150;-47
2023/07/27 11:27:57;;;;;;;10.13;9.13;;;16.90;89.70;;;;;;5087642;28;20074;-45
2023/07/27 11:30:25;;;;;;;9.75;8.80;;;16.90;89.70;;;;;;5081846;28;20114;-47
2023/07/27 11:33:09;;;;;;;10.13;8.68;;;16.90;89.60;;;;;;5091217;28;20475;-47
2023/07/27 11:35:48;;;;;;;9.65;8.60;;;16.80;89.40;;;;;;5058623;28;20362;-45
2023/07/27 11:38:13;;;;;;;9.80;8.80;;;16.80;89.60;;;;;;5062192;28;20053;-46
2023/07/27 11:40:46;;;;;;;14.57;8.65;;;16.80;89.70;;;;;;5060324;28;20114;-47
2023/07/27 11:43:13;;;;;;;9.77;8.88;;;16.70;89.40;;;;;;5062239;28;20130;-46
2023/07/27 11:45:40;;;;;;;8.32;7.53;;;16.70;89.30;;;;;;5051622;28;20357;-46
2023/07/27 11:48:07;;;;;;;8.88;7.95;;;16.70;89.50;;;;;;5067869;28;20033;-46
2023/07/27 11:50:42;;;;;;;7.93;7.15;;;16.80;89.60;;;;;;5058640;28;20025;-48
2023/07/27 11:53:10;;;;;;;7.30;6.60;;;16.90;89.70;;;;;;5067267;28;20515;-47
2023/07/27 11:55:37;;;;;;;6.78;6.07;;;17.00;89.40;;;;;;5065336;28;20131;-47
2023/07/27 11:58:11;;;;;;;6.40;5.43;;;17.10;89.30;;;;;;5035785;28;20021;-47
2023/07/27 12:00:38;;;;;;;6.30;5.70;;;17.10;89.00;;;;;;5069720;28;20016;-47
2023/07/27 12:03:05;;;;;;;5.93;5.10;;;17.00;88.80;;;;;;5071335;28;20029;-47
2023/07/27 12:05:32;;;;;;;7.55;6.68;;;17.00;89.00;;;;;;5060628;28;20029;-46
2023/07/27 12:07:58;;;;;;;5.88;5.38;;;17.00;89.20;;;;;;5053860;28;20119;-46
2023/07/27 12:10:24;;;;;;;8.27;6.15;;;17.00;89.00;;;;;;5060026;28;20033;-47
2023/07/27 12:13:05;;;;;;;6.60;5.20;;;16.90;89.00;;;;;;5042295;28;20032;-46
2023/07/27 12:15:56;;;;;;;5.55;4.97;;;16.90;89.20;;;;;;5052559;28;20024;-47
2023/07/27 12:18:25;;;;;;;6.47;5.78;;;16.90;89.40;;;;;;5047292;28;20562;-46
2023/07/27 12:20:54;;;;;;;7.27;5.33;;;17.00;89.50;;;;;;5071656;28;20029;-47
2023/07/27 12:23:21;;;;;;;7.47;6.72;;;17.00;89.70;;;;;;5066934;28;20081;-48
2023/07/27 12:25:50;;;;;;;6.00;4.95;;;17.20;89.60;;;;;;5066894;28;20104;-47
2023/07/27 12:28:16;;;;;;;7.22;6.00;;;17.20;89.10;;;;;;5056862;28;20036;-47
2023/07/27 12:30:45;;;;;;;5.93;5.10;;;17.20;88.80;;;;;;5069280;28;20033;-49
2023/07/27 12:33:13;;;;;;;7.40;6.05;;;17.30;89.10;;;;;;5067522;28;20056;-47
2023/07/27 12:35:40;;;;;;;6.10;5.50;;;17.30;89.00;;;;;;5069437;28;20028;-48
2023/07/27 12:38:06;;;;;;;9.15;6.25;;;17.30;88.90;;;;;;5063743;28;20025;-52
2023/07/27 12:40:33;;;;;;;8.38;6.03;;;17.30;88.60;;;;;;5070220;28;20025;-48
2023/07/27 12:43:00;;;;;;;6.43;5.07;;;17.20;88.60;;;;;;5067627;28;20381;-48
2023/07/27 12:45:29;;;;;;;6.25;5.65;;;17.20;88.90;;;;;;5069121;28;20060;-49
2023/07/27 12:47:55;;;;;;;9.32;6.40;;;17.30;89.00;;;;;;5060446;28;20568;-52
2023/07/27 12:50:22;;;;;;;7.00;6.22;;;17.20;88.70;;;;;;5074126;28;20044;-50
2023/07/27 12:52:49;;;;;;;5.88;5.18;;;17.10;88.90;;;;;;5073585;28;20029;-51
2023/07/27 12:55:19;;;;;;;7.13;5.32;;;17.10;89.00;;;;;;5061836;28;20021;-47